sensor_id;sensor_type;location;lat;lon;timestamp;P1;durP1;ratioP1;P2;durP2;ratioP2
77720;SDS011;75573;44.482;0.080;2024-02-15T00:21:46;3.00;;;1.13;;
77720;SDS011;75573;44.482;0.080;2024-02-15T00:48:53;4.07;;;0.90;;
77720;SDS011;75573;44.482;0.080;2024-02-15T01:15:58;2.93;;;0.90;;
77720;SDS011;75573;44.482;0.080;2024-02-15T01:43:03;3.47;;;1.10;;
77720;SDS011;75573;44.482;0.080;2024-02-15T02:37:14;2.53;;;1.10;;
77720;SDS011;75573;44.482;0.080;2024-02-15T03:04:19;2.00;;;0.80;;
77720;SDS011;75573;44.482;0.080;2024-02-15T03:31:25;2.03;;;0.80;;
77720;SDS011;75573;44.482;0.080;2024-02-15T03:58:30;1.90;;;1.00;;
77720;SDS011;75573;44.482;0.080;2024-02-15T04:25:36;1.50;;;0.70;;
77720;SDS011;75573;44.482;0.080;2024-02-15T04:52:42;2.63;;;1.10;;
77720;SDS011;75573;44.482;0.080;2024-02-15T05:19:46;3.00;;;1.10;;
77720;SDS011;75573;44.482;0.080;2024-02-15T05:46:51;-1.00;;;-1.00;;
77720;SDS011;75573;44.482;0.080;2024-02-15T06:13:57;4.30;;;2.33;;
77720;SDS011;75573;44.482;0.080;2024-02-15T06:41:02;-1.00;;;-1.00;;
77720;SDS011;75573;44.482;0.080;2024-02-15T07:08:08;5.27;;;3.00;;
77720;SDS011;75573;44.482;0.080;2024-02-15T07:35:13;8.07;;;3.00;;
77720;SDS011;75573;44.482;0.080;2024-02-15T08:02:20;5.47;;;2.50;;
77720;SDS011;75573;44.482;0.080;2024-02-15T08:29:26;4.50;;;2.20;;
77720;SDS011;75573;44.482;0.080;2024-02-15T08:56:33;4.07;;;2.50;;
77720;SDS011;75573;44.482;0.080;2024-02-15T09:23:39;6.33;;;2.93;;
77720;SDS011;75573;44.482;0.080;2024-02-15T09:50:45;3.57;;;1.83;;
77720;SDS011;75573;44.482;0.080;2024-02-15T10:17:53;3.37;;;1.50;;
77720;SDS011;75573;44.482;0.080;2024-02-15T10:44:59;7.57;;;4.13;;
77720;SDS011;75573;44.482;0.080;2024-02-15T11:12:07;2.70;;;1.90;;
77720;SDS011;75573;44.482;0.080;2024-02-15T12:06:25;2.33;;;1.30;;
77720;SDS011;75573;44.482;0.080;2024-02-15T12:33:28;1.87;;;1.10;;
77720;SDS011;75573;44.482;0.080;2024-02-15T13:27:40;2.57;;;1.60;;
77720;SDS011;75573;44.482;0.080;2024-02-15T13:54:46;5.17;;;1.90;;
77720;SDS011;75573;44.482;0.080;2024-02-15T14:21:52;2.90;;;1.20;;
77720;SDS011;75573;44.482;0.080;2024-02-15T14:49:00;2.13;;;0.97;;
77720;SDS011;75573;44.482;0.080;2024-02-15T15:16:04;3.97;;;1.10;;
77720;SDS011;75573;44.482;0.080;2024-02-15T15:43:10;1.57;;;0.90;;
77720;SDS011;75573;44.482;0.080;2024-02-15T16:10:16;2.00;;;1.13;;
77720;SDS011;75573;44.482;0.080;2024-02-15T16:37:20;2.63;;;1.13;;
77720;SDS011;75573;44.482;0.080;2024-02-15T17:04:22;2.37;;;1.10;;
77720;SDS011;75573;44.482;0.080;2024-02-15T17:31:26;3.23;;;1.10;;
77720;SDS011;75573;44.482;0.080;2024-02-15T17:58:30;-1.00;;;-1.00;;
77720;SDS011;75573;44.482;0.080;2024-02-15T18:25:35;1.97;;;1.10;;
77720;SDS011;75573;44.482;0.080;2024-02-15T18:52:39;-1.00;;;-1.00;;
77720;SDS011;75573;44.482;0.080;2024-02-15T19:19:43;2.90;;;1.30;;
77720;SDS011;75573;44.482;0.080;2024-02-15T19:46:49;7.17;;;2.30;;
77720;SDS011;75573;44.482;0.080;2024-02-15T20:13:52;8.17;;;2.50;;
77720;SDS011;75573;44.482;0.080;2024-02-15T20:40:58;8.73;;;2.63;;
77720;SDS011;75573;44.482;0.080;2024-02-15T21:08:05;10.23;;;3.00;;
77720;SDS011;75573;44.482;0.080;2024-02-15T21:35:09;9.87;;;2.60;;
77720;SDS011;75573;44.482;0.080;2024-02-15T22:02:13;8.60;;;2.53;;
77720;SDS011;75573;44.482;0.080;2024-02-15T22:29:19;12.40;;;3.33;;
77720;SDS011;75573;44.482;0.080;2024-02-15T22:56:25;9.53;;;3.63;;
77720;SDS011;75573;44.482;0.080;2024-02-15T23:23:31;12.57;;;3.30;;
77720;SDS011;75573;44.482;0.080;2024-02-15T23:50:36;12.77;;;4.60;;
